Time;durP1;ratioP1;P1;durP2;ratioP2;P2;SDS_P1;SDS_P2;PMS_P1;PMS_P2;Temp;Humidity;BMP_temperature;BMP_pressure;BME280_temperature;BME280_humidity;BME280_pressure;Samples;Min_cycle;Max_cycle;Signal;HPM_P1;HPM_P2
2022/05/10 00:01:13;;;;;;;13.20;5.08;;;;;;;12.09;50.07;100683.03;1707154;83;21222;-58
2022/05/10 00:03:40;;;;;;;9.35;4.15;;;;;;;12.03;50.02;100683.25;1705096;83;21204;-64
2022/05/10 00:06:06;;;;;;;10.10;4.25;;;;;;;12.07;49.90;100682.39;1707465;83;21519;-56
2022/05/10 00:08:35;;;;;;;11.57;4.00;;;;;;;12.10;50.01;100678.11;1684122;84;20992;-57
2022/05/10 00:11:03;;;;;;;8.63;4.05;;;;;;;11.85;50.68;100682.80;1707251;83;21011;-54
2022/05/10 00:13:30;;;;;;;6.87;3.55;;;;;;;11.90;50.82;100682.59;1706644;83;21143;-62
2022/05/10 00:15:56;;;;;;;9.43;4.20;;;;;;;11.98;50.67;100681.69;1705489;83;21030;-57
2022/05/10 00:18:25;;;;;;;10.20;4.87;;;;;;;12.03;51.11;100683.25;1706473;83;20986;-54
2022/05/10 00:20:51;;;;;;;9.28;3.85;;;;;;;11.89;52.02;100680.98;1707006;83;21019;-54
2022/05/10 00:23:18;;;;;;;11.68;4.40;;;;;;;11.86;52.35;100685.75;1706354;83;21498;-60
2022/05/10 00:25:45;;;;;;;9.40;4.22;;;;;;;11.72;52.85;100691.75;1705502;83;21122;-54
2022/05/10 00:28:11;;;;;;;5.53;3.52;;;;;;;11.59;53.09;100685.82;1705953;83;21038;-55
2022/05/10 00:30:39;;;;;;;9.70;3.77;;;;;;;11.58;52.66;100681.59;1706899;83;21054;-55
2022/05/10 00:33:06;;;;;;;7.75;3.33;;;;;;;11.57;52.02;100682.59;1707457;83;21615;-55
2022/05/10 00:35:34;;;;;;;7.60;3.08;;;;;;;11.63;50.85;100682.70;1706339;83;21006;-62
2022/05/10 00:38:02;;;;;;;5.95;3.10;;;;;;;11.66;49.81;100688.03;1705755;83;21740;-54
2022/05/10 00:40:33;;;;;;;8.70;3.80;;;;;;;11.61;48.88;100679.94;1707062;83;21521;-54
2022/05/10 00:43:26;;;;;;;5.58;3.33;;;;;;;11.65;48.36;100682.51;1706944;83;20984;-54
2022/05/10 00:45:57;;;;;;;8.48;2.98;;;;;;;11.60;47.94;100680.94;1713743;82;21011;-56
2022/05/10 00:48:47;;;;;;;7.10;3.05;;;;;;;11.55;47.29;100680.64;1707328;83;21043;-54
2022/05/10 00:51:45;;;;;;;7.03;2.95;;;;;;;11.50;46.76;100681.19;1706250;83;21211;-54
2022/05/10 00:54:26;;;;;;;5.85;2.83;;;;;;;11.50;46.40;100673.85;1707333;83;21086;-63
2022/05/10 00:57:24;;;;;;;6.58;3.02;;;;;;;11.40;46.01;100676.23;1706835;83;22595;-56
2022/05/10 01:00:14;;;;;;;7.45;3.37;;;;;;;11.41;45.64;100675.74;1705190;83;20928;-60
2022/05/10 01:03:06;;;;;;;7.10;3.12;;;;;;;11.30;45.60;100682.20;1707012;83;21046;-57
2022/05/10 01:05:41;;;;;;;6.70;3.25;;;;;;;11.48;45.21;100675.81;1718555;82;21245;-56
2022/05/10 01:08:22;;;;;;;6.60;3.15;;;;;;;11.41;45.27;100677.05;1720375;82;21585;-56
2022/05/10 01:10:55;;;;;;;;;;;;;;;11.46;45.30;100678.62;1710727;83;21026;-60
2022/05/10 01:13:41;;;;;;;7.65;3.98;;;;;;;11.39;45.59;100679.81;1719930;83;20317;-58
2022/05/10 01:16:11;;;;;;;9.03;3.67;;;;;;;11.37;45.73;100679.20;1720229;82;21038;-56
2022/05/10 01:18:39;;;;;;;11.50;4.03;;;;;;;11.31;46.01;100674.67;1714770;83;21856;-55
2022/05/10 01:21:27;;;;;;;8.55;3.65;;;;;;;11.32;45.95;100677.59;1720259;83;21447;-55
2022/05/10 01:24:31;;;;;;;8.18;3.62;;;;;;;11.22;46.03;100673.64;1717998;82;21699;-55
2022/05/10 01:27:07;;;;;;;6.12;2.92;;;;;;;11.03;46.31;100674.45;1720536;83;21481;-55
2022/05/10 01:30:07;;;;;;;6.90;3.40;;;;;;;11.03;46.11;100670.53;1718832;83;21033;-64
2022/05/10 01:36:10;;;;;;;9.18;3.42;;;;;;;11.07;46.19;100668.38;1720557;82;21062;-56
2022/05/10 01:38:45;;;;;;;7.20;3.15;;;;;;;11.07;46.20;100665.28;1719983;82;21980;-56
2022/05/10 01:41:54;;;;;;;5.22;2.87;;;;;;;11.19;45.87;100672.99;1720128;82;21536;-56
2022/05/10 01:44:56;;;;;;;5.72;3.25;;;;;;;11.03;46.01;100671.03;1719473;83;21681;-56
2022/05/10 01:47:33;;;;;;;6.12;2.90;;;;;;;11.17;45.46;100668.92;1684537;84;21136;-56
2022/05/10 01:50:40;;;;;;;7.83;2.92;;;;;;;11.07;45.22;100669.69;1684878;84;21004;-54
2022/05/10 01:53:18;;;;;;;4.35;2.58;;;;;;;11.00;44.90;100670.87;1655617;86;21110;-56
2022/05/10 01:55:49;;;;;;;6.20;2.80;;;;;;;11.09;44.35;100667.20;1655108;86;20925;-62
2022/05/10 01:58:28;;;;;;;5.58;3.10;;;;;;;11.09;44.01;100663.78;1622824;86;21487;-57
2022/05/10 02:01:07;;;;;;;6.65;3.45;;;;;;;11.06;43.80;100671.48;1670524;84;21082;-54
2022/05/10 02:04:00;;;;;;;6.10;3.20;;;;;;;11.12;43.47;100668.16;1647243;85;21155;-54
2022/05/10 02:06:38;;;;;;;4.37;2.60;;;;;;;11.13;43.32;100667.66;1665315;86;20912;-54
2022/05/10 02:09:26;;;;;;;5.45;2.30;;;;;;;11.15;43.07;100667.81;1664409;85;21560;-53
2022/05/10 02:12:04;;;;;;;5.50;2.52;;;;;;;11.11;43.03;100667.05;1665475;85;21012;-54
2022/05/10 02:14:49;;;;;;;5.35;2.40;;;;;;;11.28;42.64;100667.70;1665059;85;21298;-55
2022/05/10 02:17:34;;;;;;;5.70;2.47;;;;;;;11.34;42.23;100666.50;1665817;85;21070;-53
2022/05/10 02:20:07;;;;;;;4.95;2.87;;;;;;;11.41;42.02;100668.72;1665347;85;21071;-61
2022/05/10 02:22:53;;;;;;;5.45;2.80;;;;;;;11.57;41.49;100670.34;1666346;85;21087;-61
2022/05/10 02:25:27;;;;;;;5.20;3.00;;;;;;;11.69;41.07;100664.98;1665480;85;21030;-53
2022/05/10 02:28:06;;;;;;;7.35;3.00;;;;;;;11.66;41.08;100671.06;1665356;85;22261;-54
2022/05/10 02:30:36;;;;;;;5.67;2.70;;;;;;;11.80;40.79;100678.09;1659528;85;21039;-54
2022/05/10 02:33:09;;;;;;;4.95;3.15;;;;;;;11.92;40.47;100677.98;1666167;85;20968;-54
2022/05/10 02:35:56;;;;;;;4.45;2.50;;;;;;;12.07;40.19;100683.19;1664791;85;21477;-55
2022/05/10 02:38:28;;;;;;;4.95;2.62;;;;;;;12.03;40.21;100679.83;1665435;85;21119;-54
2022/05/10 02:40:57;;;;;;;5.28;3.15;;;;;;;11.99;40.03;100679.88;1666149;85;21305;-55
2022/05/10 02:43:29;;;;;;;4.83;2.50;;;;;;;11.90;40.02;100681.28;1665275;85;20989;-56
2022/05/10 02:45:56;;;;;;;5.28;2.50;;;;;;;11.95;40.02;100674.70;1664748;85;21102;-55
2022/05/10 02:48:34;;;;;;;5.72;3.33;;;;;;;12.00;39.97;100669.23;1665729;85;21995;-54
2022/05/10 02:51:01;;;;;;;7.42;3.12;;;;;;;12.11;39.84;100674.50;1664784;85;20976;-55
2022/05/10 02:53:28;;;;;;;7.22;3.75;;;;;;;12.24;39.70;100671.25;1665335;86;22308;-55
2022/05/10 02:56:01;;;;;;;7.25;3.27;;;;;;;12.39;39.55;100670.22;1664921;86;21065;-54
2022/05/10 02:58:42;;;;;;;10.88;4.12;;;;;;;12.51;39.47;100675.77;1665539;85;21062;-58
2022/05/10 03:01:55;;;;;;;7.75;4.20;;;;;;;12.64;39.43;100673.27;1666528;85;21457;-55
2022/05/10 03:04:23;;;;;;;9.60;5.22;;;;;;;12.85;39.10;100669.86;1664543;86;21050;-54
2022/05/10 03:06:50;;;;;;;10.10;4.47;;;;;;;13.31;38.64;100679.12;1649185;86;21287;-59
2022/05/10 03:09:19;;;;;;;10.82;4.60;;;;;;;13.81;38.20;100680.64;1660495;85;21825;-56
2022/05/10 03:11:46;;;;;;;10.70;4.10;;;;;;;14.39;37.44;100674.21;1659853;86;20926;-56
2022/05/10 03:14:13;;;;;;;7.12;3.75;;;;;;;14.75;36.50;100676.55;1659806;86;21470;-58
2022/05/10 03:16:41;;;;;;;7.78;3.98;;;;;;;15.08;35.91;100678.70;1660404;86;21178;-62
2022/05/10 03:19:09;;;;;;;10.32;4.80;;;;;;;15.48;35.60;100677.34;1659640;86;21221;-56
2022/05/10 03:21:38;;;;;;;11.23;5.00;;;;;;;16.26;35.28;100685.22;1660397;85;21031;-54
2022/05/10 03:24:06;;;;;;;12.10;6.30;;;;;;;17.09;33.86;100673.78;1660636;86;21702;-55
2022/05/10 03:26:33;;;;;;;15.57;5.13;;;;;;;17.74;32.84;100675.48;1660170;85;21175;-56
2022/05/10 03:29:00;;;;;;;9.10;5.00;;;;;;;18.42;32.12;100669.19;1659911;86;21049;-62
2022/05/10 03:31:27;;;;;;;10.60;5.17;;;;;;;19.23;30.76;100664.28;1660730;85;21493;-54
2022/05/10 03:36:41;;;;;;;10.00;5.87;;;;;;;20.92;28.81;100661.75;1660892;85;21756;-54
2022/05/10 03:39:11;;;;;;;10.13;5.90;;;;;;;21.87;27.66;100650.59;1660190;85;21063;-55
2022/05/10 03:41:38;;;;;;;12.00;6.43;;;;;;;22.63;26.47;100656.41;1660245;85;21051;-60
2022/05/10 03:44:06;;;;;;;11.57;6.77;;;;;;;23.29;25.71;100655.55;1660501;85;22340;-54
2022/05/10 03:46:34;;;;;;;12.63;6.47;;;;;;;23.82;24.73;100655.02;1660396;86;21485;-53
2022/05/10 03:49:02;;;;;;;12.97;7.07;;;;;;;23.93;24.23;100663.31;1660262;85;21027;-61
2022/05/10 03:51:30;;;;;;;12.30;7.13;;;;;;;24.08;24.23;100670.55;1659868;86;20980;-54
2022/05/10 03:53:58;;;;;;;12.00;6.73;;;;;;;24.61;23.96;100665.06;1659777;85;21016;-55
2022/05/10 03:56:25;;;;;;;13.60;7.43;;;;;;;25.10;23.62;100659.19;1659990;86;21277;-54
2022/05/10 03:58:52;;;;;;;12.70;7.60;;;;;;;25.80;22.80;100656.05;1661263;85;20933;-55
2022/05/10 04:01:19;;;;;;;13.67;7.93;;;;;;;26.48;22.23;100652.72;1660302;85;21047;-55
2022/05/10 04:03:47;;;;;;;13.43;7.90;;;;;;;26.91;21.90;100657.68;1659211;86;21861;-54
2022/05/10 04:06:14;;;;;;;11.57;7.50;;;;;;;27.56;21.33;100655.14;1656783;86;21043;-54
2022/05/10 04:08:42;;;;;;;13.90;9.07;;;;;;;27.74;21.14;100658.42;1655848;86;21074;-54
2022/05/10 04:11:11;;;;;;;17.90;8.80;;;;;;;28.28;20.81;100665.16;1655554;86;21047;-55
2022/05/10 04:13:39;;;;;;;16.33;8.80;;;;;;;28.39;20.51;100667.17;1655628;86;20953;-55
2022/05/10 04:16:06;;;;;;;14.07;8.93;;;;;;;28.39;20.12;100671.74;1656156;86;21415;-55
2022/05/10 04:18:33;;;;;;;14.47;8.83;;;;;;;27.84;20.45;100674.89;1655698;86;21057;-54
2022/05/10 04:21:01;;;;;;;11.77;7.57;;;;;;;27.87;20.54;100674.31;1656361;86;21522;-54
2022/05/10 04:23:28;;;;;;;13.47;9.17;;;;;;;28.11;20.21;100667.58;1654946;86;21541;-63
2022/05/10 04:26:04;;;;;;;13.03;9.43;;;;;;;28.70;20.14;100675.52;1655988;86;22092;-55
2022/05/10 04:28:33;;;;;;;12.80;8.90;;;;;;;29.31;19.55;100673.09;1656283;86;21538;-54
2022/05/10 04:31:00;;;;;;;13.93;9.43;;;;;;;29.78;19.19;100667.63;1656516;86;21012;-54
2022/05/10 04:33:27;;;;;;;13.50;9.15;;;;;;;30.49;18.77;100661.16;1655016;86;22537;-62
2022/05/10 04:35:54;;;;;;;13.90;9.10;;;;;;;31.01;18.40;100662.83;1655963;86;21238;-54
2022/05/10 04:38:22;;;;;;;12.82;7.33;;;;;;;31.54;17.95;100661.91;1656254;86;21068;-55
2022/05/10 04:43:37;;;;;;;11.48;6.75;;;;;;;32.42;17.20;100654.91;1707094;83;21114;-55
2022/05/10 04:46:05;;;;;;;8.40;5.90;;;;;;;32.69;16.83;100657.81;1707185;83;21075;-54
2022/05/10 04:48:33;;;;;;;9.08;5.45;;;;;;;32.86;16.52;100660.21;1706757;83;21489;-54
2022/05/10 04:51:03;;;;;;;7.70;5.22;;;;;;;32.92;16.22;100662.42;1706520;83;21050;-60
2022/05/10 04:53:30;;;;;;;8.30;5.47;;;;;;;32.97;16.01;100664.73;1706929;83;21402;-54
2022/05/10 04:55:57;;;;;;;7.47;5.15;;;;;;;33.14;15.83;100668.13;1706929;83;21702;-56
2022/05/10 04:58:25;;;;;;;8.40;5.55;;;;;;;33.09;15.51;100669.67;1707152;83;22295;-55
2022/05/10 05:00:52;;;;;;;8.68;6.30;;;;;;;32.66;15.70;100656.31;1707958;83;20920;-54
2022/05/10 05:03:19;;;;;;;11.10;6.97;;;;;;;32.51;15.89;100664.36;1707023;83;20980;-55
2022/05/10 05:05:47;;;;;;;10.48;6.03;;;;;;;32.42;15.99;100656.82;1708192;83;21990;-55
2022/05/10 05:08:15;;;;;;;9.45;5.20;;;;;;;32.72;15.83;100659.62;1709623;83;21015;-55
2022/05/10 05:10:44;;;;;;;4.80;3.30;;;;;;;32.76;15.79;100664.05;1707412;83;21154;-56
2022/05/10 05:13:11;;;;;;;4.40;3.10;;;;;;;32.80;14.94;100666.89;1705673;83;20946;-55
2022/05/10 05:15:38;;;;;;;5.75;3.25;;;;;;;32.34;15.04;100661.66;1707278;83;21265;-54
2022/05/10 05:18:07;;;;;;;5.03;3.30;;;;;;;32.20;15.23;100664.52;1707082;83;21026;-54
2022/05/10 05:20:36;;;;;;;6.03;3.37;;;;;;;32.13;15.29;100666.36;1707465;83;21071;-54
2022/05/10 05:23:08;;;;;;;5.50;3.70;;;;;;;32.21;15.07;100655.33;1706284;83;21282;-58
2022/05/10 05:25:32;;;;;;;4.47;3.30;;;;;;;31.92;15.00;100662.14;1706958;83;21483;-54
2022/05/10 05:28:01;;;;;;;5.67;3.05;;;;;;;31.58;15.10;100662.08;1706578;83;21070;-56
2022/05/10 05:30:28;;;;;;;5.90;3.62;;;;;;;31.47;15.48;100660.23;1707306;83;21532;-55
2022/05/10 05:32:56;;;;;;;5.97;4.05;;;;;;;31.18;15.52;100666.95;1707299;83;21078;-62
2022/05/10 05:35:24;;;;;;;9.20;3.52;;;;;;;30.93;15.89;100664.37;1707089;83;22383;-54
2022/05/10 05:37:54;;;;;;;7.25;4.53;;;;;;;31.19;15.75;100661.79;1666482;85;21132;-56
2022/05/10 05:40:20;;;;;;;5.15;3.37;;;;;;;31.26;15.73;100661.34;1708206;83;21466;-55
2022/05/10 05:42:48;;;;;;;5.20;3.17;;;;;;;31.20;15.38;100652.59;1707851;83;21573;-54
2022/05/10 05:45:17;;;;;;;5.65;3.58;;;;;;;30.65;15.89;100650.80;1706119;83;21004;-57
2022/05/10 05:47:44;;;;;;;5.95;3.37;;;;;;;30.65;15.89;100650.80;1707384;83;21579;-54
2022/05/10 05:50:12;;;;;;;5.85;3.15;;;;;;;30.84;15.90;100658.69;1707598;83;20951;-54
2022/05/10 05:52:40;;;;;;;7.67;3.30;;;;;;;31.18;15.42;100648.65;1707165;83;21474;-54
2022/05/10 05:55:07;;;;;;;8.10;3.30;;;;;;;31.35;15.51;100653.31;1706128;83;21032;-60
2022/05/10 05:57:35;;;;;;;6.72;4.28;;;;;;;31.43;15.20;100651.19;1706805;83;21488;-56
2022/05/10 06:00:05;;;;;;;7.72;4.12;;;;;;;31.54;15.28;100649.78;1707315;83;21316;-55
2022/05/10 06:02:34;;;;;;;5.47;4.08;;;;;;;31.32;15.45;100649.33;1706304;83;20990;-55
2022/05/10 06:05:02;;;;;;;6.75;4.53;;;;;;;31.38;15.53;100649.44;1706482;83;21023;-61
2022/05/10 06:07:31;;;;;;;7.42;4.15;;;;;;;31.79;15.17;100643.41;1704280;82;22082;-54
2022/05/10 06:09:58;;;;;;;7.40;4.55;;;;;;;31.90;15.31;100651.45;1703871;82;21113;-55
2022/05/10 06:12:25;;;;;;;6.60;4.45;;;;;;;32.06;15.02;100647.17;1704293;82;22695;-55
2022/05/10 06:14:52;;;;;;;8.43;3.35;;;;;;;32.03;15.08;100641.61;1703578;83;20955;-61
2022/05/10 06:17:20;;;;;;;5.67;3.70;;;;;;;31.87;15.00;100640.74;1703134;83;20927;-53
2022/05/10 06:19:47;;;;;;;7.70;3.90;;;;;;;31.87;15.00;100640.74;1703333;83;21808;-55
2022/05/10 06:22:14;;;;;;;6.25;3.42;;;;;;;31.60;15.09;100641.80;1704267;82;21106;-54
2022/05/10 06:24:41;;;;;;;8.45;3.60;;;;;;;31.13;15.54;100643.39;1704347;82;21256;-54
2022/05/10 06:27:12;;;;;;;4.87;2.95;;;;;;;31.04;15.61;100648.75;1702946;82;21022;-61
2022/05/10 06:29:41;;;;;;;4.97;3.00;;;;;;;31.00;15.27;100639.15;1704223;82;21621;-54
2022/05/10 06:32:11;;;;;;;5.20;3.08;;;;;;;30.75;15.38;100639.27;1703783;82;21520;-55
2022/05/10 06:34:40;;;;;;;6.53;3.50;;;;;;;30.77;15.45;100641.11;1692262;84;21126;-54
2022/05/10 06:39:36;;;;;;;6.97;4.17;;;;;;;31.02;15.71;100635.58;1586113;86;21481;-54
2022/05/10 06:42:04;;;;;;;6.20;3.02;;;;;;;31.10;15.71;100635.37;1645420;86;21072;-54
2022/05/10 06:44:31;;;;;;;4.42;2.30;;;;;;;31.32;15.59;100631.83;1672884;85;21084;-54
2022/05/10 06:46:59;;;;;;;4.28;2.25;;;;;;;31.43;15.67;100622.34;1661373;86;21422;-61
2022/05/10 06:49:26;;;;;;;7.55;2.85;;;;;;;31.88;15.08;100614.57;1645440;86;21589;-56
2022/05/10 06:51:53;;;;;;;3.22;1.98;;;;;;;31.71;14.75;100639.05;1673766;84;21292;-55
2022/05/10 06:54:21;;;;;;;4.15;1.75;;;;;;;31.29;14.93;100615.46;1661881;86;21034;-55
2022/05/10 06:56:48;;;;;;;4.60;1.70;;;;;;;31.32;14.57;100614.31;1645758;86;20966;-53
2022/05/10 06:59:17;;;;;;;3.83;1.85;;;;;;;30.78;14.77;100620.36;1662659;86;21585;-54
2022/05/10 07:01:44;;;;;;;2.65;1.40;;;;;;;30.08;15.42;100619.63;1675056;84;21885;-53
2022/05/10 07:04:12;;;;;;;5.05;1.72;;;;;;;29.74;15.47;100623.09;1662279;86;21069;-53
2022/05/10 07:06:41;;;;;;;3.60;1.90;;;;;;;29.63;16.23;100620.94;1655296;86;21496;-54
2022/05/10 07:09:08;;;;;;;3.87;2.10;;;;;;;29.66;16.54;100623.78;1692245;84;21518;-60
2022/05/10 07:11:35;;;;;;;6.90;1.97;;;;;;;30.02;16.16;100611.69;1662628;86;21470;-53
2022/05/10 07:14:02;;;;;;;4.28;2.00;;;;;;;30.41;16.03;100610.24;1664382;86;22632;-54
2022/05/10 07:16:30;;;;;;;3.55;1.62;;;;;;;30.76;15.72;100613.14;1692730;84;21059;-53
2022/05/10 07:18:57;;;;;;;3.03;1.57;;;;;;;30.43;14.93;100600.54;1692961;84;21029;-56
2022/05/10 07:21:24;;;;;;;3.30;1.50;;;;;;;29.85;15.58;100613.44;1691542;84;21055;-55
2022/05/10 07:23:52;;;;;;;2.43;1.30;;;;;;;29.33;15.52;100611.84;1692995;84;21526;-53
2022/05/10 07:26:19;;;;;;;4.13;1.40;;;;;;;29.13;16.34;100607.41;1692701;84;21335;-54
2022/05/10 07:28:47;;;;;;;2.50;1.47;;;;;;;29.02;15.55;100613.00;1692391;84;21115;-54
2022/05/10 07:31:15;;;;;;;3.47;1.30;;;;;;;28.51;15.26;100617.09;1691702;84;21502;-61
2022/05/10 07:33:42;;;;;;;3.30;1.40;;;;;;;27.81;15.78;100612.53;1691956;84;21349;-55
2022/05/10 07:36:33;;;;;;;5.33;1.40;;;;;;;27.46;15.91;100607.06;1691091;84;21327;-53
2022/05/10 07:38:57;;;;;;;2.37;0.90;;;;;;;27.22;16.10;100616.45;1690587;84;21502;-54
2022/05/10 07:41:24;;;;;;;3.83;1.13;;;;;;;26.93;16.39;100598.02;1691603;84;21117;-57
2022/05/10 07:43:52;;;;;;;4.23;1.10;;;;;;;26.65;16.78;100614.87;1672664;85;21058;-56
2022/05/10 07:46:20;;;;;;;4.70;1.37;;;;;;;26.15;16.86;100616.84;1682778;84;21074;-57
2022/05/10 07:48:49;;;;;;;2.90;1.03;;;;;;;25.75;16.98;100606.63;1682750;85;20964;-54
2022/05/10 07:51:16;;;;;;;2.77;0.93;;;;;;;25.64;17.77;100596.54;1682731;84;21087;-61
2022/05/10 07:53:44;;;;;;;3.50;1.30;;;;;;;26.05;17.43;100595.53;1683293;85;21318;-55
2022/05/10 07:56:13;;;;;;;2.77;1.00;;;;;;;26.34;17.02;100587.03;1683138;85;21058;-53
2022/05/10 07:58:40;;;;;;;3.57;1.10;;;;;;;26.39;16.66;100589.66;1682879;85;21073;-54
2022/05/10 08:01:07;;;;;;;4.50;1.67;;;;;;;26.22;17.10;100594.62;1682460;84;21081;-57
2022/05/10 08:03:36;;;;;;;2.03;0.90;;;;;;;25.96;16.87;100592.66;1682714;85;21627;-54
2022/05/10 08:06:03;;;;;;;2.73;1.07;;;;;;;25.50;17.07;100602.77;1682610;84;21545;-54
2022/05/10 08:08:36;;;;;;;3.07;1.10;;;;;;;25.07;17.35;100593.01;1683991;84;21029;-55
2022/05/10 08:11:04;;;;;;;2.17;1.03;;;;;;;24.70;17.70;100604.30;1684336;84;21111;-58
2022/05/10 08:13:33;;;;;;;2.70;1.03;;;;;;;24.91;18.01;100602.38;1684067;84;21024;-54
2022/05/10 08:16:01;;;;;;;2.53;1.07;;;;;;;25.50;17.68;100589.43;1684700;84;21170;-53
2022/05/10 08:18:28;;;;;;;4.53;1.83;;;;;;;26.09;17.20;100589.35;1684170;84;21076;-54
2022/05/10 08:20:58;;;;;;;3.73;1.10;;;;;;;26.24;16.76;100589.78;1684048;84;21064;-56
2022/05/10 08:23:28;;;;;;;2.20;0.80;;;;;;;25.85;16.98;100593.27;1683491;84;21046;-54
2022/05/10 08:25:56;;;;;;;2.08;0.95;;;;;;;25.39;16.95;100598.80;1684654;84;21574;-61
2022/05/10 08:28:24;;;;;;;3.10;1.20;;;;;;;25.09;16.95;100602.88;1684324;84;21135;-55
2022/05/10 08:30:51;;;;;;;3.00;0.80;;;;;;;24.62;17.17;100606.68;1684391;84;21009;-56
2022/05/10 08:33:28;;;;;;;2.97;1.17;;;;;;;24.56;17.46;100603.23;1655508;86;21627;-54
2022/05/10 08:35:56;;;;;;;4.10;1.20;;;;;;;24.61;17.56;100591.77;1664693;85;21504;-54
2022/05/10 08:38:25;;;;;;;2.47;1.03;;;;;;;24.68;17.30;100597.63;1675258;85;21018;-56
2022/05/10 08:41:25;;;;;;;3.53;1.10;;;;;;;24.35;17.53;100599.73;1665483;86;21168;-55
2022/05/10 08:44:09;;;;;;;2.50;1.30;;;;;;;23.85;17.61;100593.28;1665391;85;21050;-54
2022/05/10 08:46:41;;;;;;;2.87;1.53;;;;;;;23.18;18.19;100598.05;1665307;86;21440;-60
2022/05/10 08:49:34;;;;;;;3.80;1.63;;;;;;;23.00;18.65;100596.11;1665241;85;22947;-54
2022/05/10 08:52:01;;;;;;;4.60;2.13;;;;;;;23.04;18.57;100591.88;1665101;85;21576;-54
2022/05/10 08:54:29;;;;;;;2.67;1.00;;;;;;;23.28;18.28;100579.48;1665264;85;22032;-54
2022/05/10 08:57:03;;;;;;;3.37;1.10;;;;;;;23.88;18.26;100578.66;1665916;85;21382;-54
2022/05/10 08:59:50;;;;;;;1.87;0.70;;;;;;;24.62;17.23;100577.36;1665909;85;21055;-55
2022/05/10 09:02:21;;;;;;;2.73;0.87;;;;;;;25.25;16.54;100561.77;1665262;85;21082;-54
2022/05/10 09:05:21;;;;;;;3.05;0.82;;;;;;;25.46;15.77;100577.96;1665309;85;21115;-54
2022/05/10 09:08:08;;;;;;;2.93;1.13;;;;;;;25.59;15.97;100563.75;1639801;87;21729;-55
2022/05/10 09:10:53;;;;;;;4.50;1.30;;;;;;;26.07;16.04;100545.31;1645026;87;21319;-54
2022/05/10 09:13:21;;;;;;;4.20;1.97;;;;;;;26.71;15.22;100546.07;1644810;87;21567;-55
2022/05/10 09:15:53;;;;;;;5.83;2.03;;;;;;;26.98;15.26;100540.19;1645251;87;21048;-54
2022/05/10 09:18:23;;;;;;;6.70;2.10;;;;;;;27.26;15.25;100538.52;1644865;87;21049;-54
2022/05/10 09:21:23;;;;;;;4.90;2.20;;;;;;;26.89;15.28;100548.81;1645104;85;22222;-59
2022/05/10 09:24:25;;;;;;;5.53;2.20;;;;;;;26.89;15.28;100548.81;1634896;87;21650;-62
2022/05/10 09:27:00;;;;;;;3.93;1.67;;;;;;;26.31;15.51;100550.72;1645006;87;21032;-54
2022/05/10 09:29:48;;;;;;;4.47;1.77;;;;;;;25.49;15.72;100545.90;1645287;85;21515;-54
2022/05/10 09:35:16;;;;;;;6.40;2.30;;;;;;;24.81;17.07;100553.60;1637475;85;21888;-56
2022/05/10 09:38:02;;;;;;;4.67;1.97;;;;;;;25.24;16.91;100551.64;1645352;86;21577;-55
2022/05/10 09:40:43;;;;;;;4.50;1.83;;;;;;;25.75;16.65;100549.22;1646057;85;21095;-61
2022/05/10 09:43:32;;;;;;;6.77;2.57;;;;;;;26.17;16.11;100553.22;1644701;87;21092;-56
2022/05/10 09:46:10;;;;;;;5.87;2.03;;;;;;;26.13;15.85;100546.30;1644771;86;20958;-61
2022/05/10 09:48:40;;;;;;;5.27;2.50;;;;;;;25.83;16.05;100545.99;1645070;86;21698;-54
2022/05/10 09:51:36;;;;;;;4.10;2.00;;;;;;;25.85;16.56;100542.52;1645717;85;21510;-56
2022/05/10 09:54:06;;;;;;;6.73;2.20;;;;;;;26.19;16.70;100540.39;1645530;85;21298;-55
2022/05/10 09:56:37;;;;;;;5.50;2.37;;;;;;;26.77;15.93;100531.03;1644612;87;21502;-56
2022/05/10 09:59:29;;;;;;;5.00;1.92;;;;;;;27.36;15.52;100522.34;1646170;85;21049;-54
2022/05/10 10:01:58;;;;;;;4.70;2.00;;;;;;;27.75;14.65;100524.73;1645654;85;22096;-55
2022/05/10 10:04:31;;;;;;;4.17;1.90;;;;;;;27.75;14.44;100510.00;1645090;87;21037;-54
2022/05/10 10:07:22;;;;;;;4.83;2.00;;;;;;;27.68;14.67;100513.56;1645603;86;21015;-54
2022/05/10 10:09:55;;;;;;;6.05;2.27;;;;;;;28.08;14.79;100516.73;1651627;86;22389;-55
2022/05/10 10:12:35;;;;;;;3.97;1.87;;;;;;;28.54;14.26;100498.52;1650384;86;21371;-60
2022/05/10 10:15:24;;;;;;;4.27;2.17;;;;;;;28.92;14.28;100500.44;1706326;83;22122;-55
2022/05/10 10:17:55;;;;;;;9.97;2.70;;;;;;;29.21;14.07;100497.97;1696168;83;21572;-62
2022/05/10 10:20:52;;;;;;;4.70;2.30;;;;;;;28.96;13.95;100498.75;1707286;83;21094;-62
2022/05/10 10:23:41;;;;;;;3.77;2.07;;;;;;;29.12;14.22;100491.19;1673797;85;21050;-56
2022/05/10 10:26:44;;;;;;;5.37;2.27;;;;;;;29.14;13.70;100484.20;1708023;83;21011;-55
2022/05/10 10:29:30;;;;;;;5.13;2.07;;;;;;;28.84;13.38;100495.23;1706487;83;21326;-55
2022/05/10 10:32:08;;;;;;;5.27;2.07;;;;;;;28.25;13.56;100490.14;1706970;83;21022;-55
2022/05/10 10:34:58;;;;;;;5.83;2.70;;;;;;;28.07;14.00;100499.03;1706334;83;21126;-55
2022/05/10 10:37:39;;;;;;;3.80;1.90;;;;;;;28.19;13.96;100483.30;1707197;83;21485;-55
2022/05/10 10:40:20;;;;;;;5.67;3.30;;;;;;;28.63;13.77;100486.54;1706245;83;21070;-55
2022/05/10 10:42:55;;;;;;;9.43;3.90;;;;;;;28.92;14.11;100480.31;1705328;83;21834;-55
2022/05/10 10:45:28;;;;;;;5.77;3.30;;;;;;;28.69;14.18;100492.85;1705905;83;20964;-63
2022/05/10 10:48:04;;;;;;;5.67;3.47;;;;;;;28.42;14.38;100484.26;1696925;83;21083;-54
2022/05/10 10:50:32;;;;;;;9.93;3.13;;;;;;;27.98;14.50;100490.09;1706142;83;21070;-55
2022/05/10 10:53:00;;;;;;;6.10;2.20;;;;;;;27.45;14.63;100483.11;1706805;83;21059;-55
2022/05/10 10:55:44;;;;;;;6.80;2.53;;;;;;;26.98;14.63;100484.00;1706531;83;21740;-55
2022/05/10 10:58:38;;;;;;;3.93;2.20;;;;;;;26.25;14.87;100489.03;1707078;83;21070;-55
2022/05/10 11:01:49;;;;;;;4.80;2.10;;;;;;;25.42;15.38;100482.17;1706185;83;21058;-62
2022/05/10 11:04:28;;;;;;;4.53;2.20;;;;;;;24.95;16.27;100474.09;1678375;84;21064;-55
2022/05/10 11:06:55;;;;;;;6.13;2.50;;;;;;;25.04;16.44;100478.86;1637705;84;21005;-55
2022/05/10 11:09:39;;;;;;;12.93;3.43;;;;;;;25.02;16.15;100474.34;1689759;83;21757;-56
2022/05/10 11:12:29;;;;;;;7.77;2.70;;;;;;;24.97;15.98;100464.50;1706475;83;21269;-57
2022/05/10 11:15:36;;;;;;;5.47;3.13;;;;;;;24.76;16.43;100472.56;1674349;85;21593;-54
2022/05/10 11:18:17;;;;;;;4.50;2.63;;;;;;;24.70;16.58;100470.18;1705498;83;21894;-55
2022/05/10 11:20:55;;;;;;;4.33;2.83;;;;;;;24.68;16.96;100471.00;1706557;83;21074;-55
2022/05/10 11:23:51;;;;;;;6.40;3.17;;;;;;;24.97;16.99;100459.17;1705904;83;21451;-56
2022/05/10 11:26:45;;;;;;;7.57;3.20;;;;;;;25.22;16.61;100451.59;1674635;85;21111;-55
2022/05/10 11:29:42;;;;;;;6.87;3.20;;;;;;;25.26;16.50;100461.17;1705961;83;21122;-55
2022/05/10 11:32:40;;;;;;;5.73;2.87;;;;;;;25.32;16.24;100456.88;1707889;82;21129;-55
2022/05/10 11:35:39;;;;;;;7.30;2.87;;;;;;;25.39;16.35;100452.03;1706414;83;20928;-58
2022/05/10 11:38:26;;;;;;;5.97;3.20;;;;;;;25.75;16.15;100448.30;1706389;83;21548;-53
2022/05/10 11:41:13;;;;;;;7.13;3.67;;;;;;;25.82;15.62;100446.14;1691429;83;21506;-54
2022/05/10 11:44:33;;;;;;;6.70;3.40;;;;;;;25.59;15.85;100447.08;1707222;83;21125;-54
2022/05/10 11:47:20;;;;;;;6.20;4.03;;;;;;;25.31;16.08;100438.48;1707389;83;21061;-56
2022/05/10 11:50:34;;;;;;;7.90;4.13;;;;;;;24.99;16.62;100441.80;1707246;83;21082;-57
2022/05/10 11:53:21;;;;;;;8.97;4.10;;;;;;;24.91;16.75;100434.38;1706447;83;22195;-56
2022/05/10 11:55:57;;;;;;;8.60;4.07;;;;;;;24.80;16.72;100435.50;1707513;83;20939;-54
2022/05/10 11:58:25;;;;;;;8.07;4.50;;;;;;;24.81;16.73;100430.95;1706868;83;21015;-54
2022/05/10 12:00:59;;;;;;;9.53;4.10;;;;;;;24.88;16.94;100426.92;1674829;85;21509;-54
2022/05/10 12:03:43;;;;;;;7.53;4.03;;;;;;;25.03;16.71;100418.59;1707307;83;21615;-54
2022/05/10 12:06:31;;;;;;;6.77;3.30;;;;;;;25.32;16.56;100414.18;1706129;83;22080;-55
2022/05/10 12:09:04;;;;;;;5.37;2.90;;;;;;;25.65;16.77;100407.27;1706845;83;21138;-56
2022/05/10 12:11:37;;;;;;;4.00;2.30;;;;;;;26.16;16.31;100392.12;1684002;84;21067;-57
2022/05/10 12:23:00;;;;;;;7.05;3.62;;;;;;;26.86;15.52;100402.29;1706662;83;21502;-56